Seattle, Washington
Traffic Map
Current Weather Conditions
Seattle, Washington
Clear
Clear

Feels Like: 7°
Wind Chill: Ceiling: Unl
Heat Index: Visibility: 10mi
Dew Point: -3° Wind: 0mph
Humidity: 49% Direction: ° ()
Pressure: 30.32in Gusts: 0mph
Raw Report DataKBFI 041753Z 00000KT 10SM CLR 07/M03 A3032 RMK AO2 SLP268 T00671033 10067 21006 51008
Traffic Incident Summary
Active as of:
Severity:
Category:
InformationThere was an issue retrieving the traffic information for this location. Please try a different location or try again shortly.
Advertisements
Track Severe Weather on mobile